sensor_id;sensor_type;location;lat;lon;timestamp;P1;durP1;ratioP1;P2;durP2;ratioP2
84923;SDS011;75286;52.218;5.180;2024-02-21T00:01:17;19.00;;;5.13;;
84923;SDS011;75286;52.218;5.180;2024-02-21T00:04:12;13.77;;;4.82;;
84923;SDS011;75286;52.218;5.180;2024-02-21T00:07:04;16.27;;;4.22;;
84923;SDS011;75286;52.218;5.180;2024-02-21T00:09:44;12.57;;;4.05;;
84923;SDS011;75286;52.218;5.180;2024-02-21T00:12:13;13.48;;;4.05;;
84923;SDS011;75286;52.218;5.180;2024-02-21T00:17:46;14.98;;;3.75;;
84923;SDS011;75286;52.218;5.180;2024-02-21T00:20:23;17.98;;;3.92;;
84923;SDS011;75286;52.218;5.180;2024-02-21T00:22:59;16.60;;;3.60;;
84923;SDS011;75286;52.218;5.180;2024-02-21T00:25:42;15.80;;;5.20;;
84923;SDS011;75286;52.218;5.180;2024-02-21T00:28:17;15.80;;;5.07;;
84923;SDS011;75286;52.218;5.180;2024-02-21T00:30:57;13.90;;;3.65;;
84923;SDS011;75286;52.218;5.180;2024-02-21T00:36:22;11.15;;;3.65;;
84923;SDS011;75286;52.218;5.180;2024-02-21T00:38:53;11.32;;;2.92;;
84923;SDS011;75286;52.218;5.180;2024-02-21T00:41:37;13.65;;;3.30;;
84923;SDS011;75286;52.218;5.180;2024-02-21T00:44:11;10.30;;;2.72;;
84923;SDS011;75286;52.218;5.180;2024-02-21T00:46:52;10.63;;;3.17;;
84923;SDS011;75286;52.218;5.180;2024-02-21T00:49:36;8.48;;;2.60;;
84923;SDS011;75286;52.218;5.180;2024-02-21T00:52:16;18.58;;;3.65;;
84923;SDS011;75286;52.218;5.180;2024-02-21T00:54:44;7.32;;;2.20;;
84923;SDS011;75286;52.218;5.180;2024-02-21T00:57:09;15.85;;;3.60;;
84923;SDS011;75286;52.218;5.180;2024-02-21T00:59:47;12.65;;;3.47;;
84923;SDS011;75286;52.218;5.180;2024-02-21T01:02:15;11.63;;;3.95;;
84923;SDS011;75286;52.218;5.180;2024-02-21T01:04:40;13.73;;;3.67;;
84923;SDS011;75286;52.218;5.180;2024-02-21T01:07:18;20.25;;;4.07;;
84923;SDS011;75286;52.218;5.180;2024-02-21T01:09:59;8.05;;;3.13;;
84923;SDS011;75286;52.218;5.180;2024-02-21T01:12:33;16.05;;;4.80;;
84923;SDS011;75286;52.218;5.180;2024-02-21T01:15:11;16.13;;;4.07;;
84923;SDS011;75286;52.218;5.180;2024-02-21T01:17:58;20.55;;;4.18;;
84923;SDS011;75286;52.218;5.180;2024-02-21T01:20:35;13.40;;;4.07;;
84923;SDS011;75286;52.218;5.180;2024-02-21T01:23:16;17.40;;;4.32;;
84923;SDS011;75286;52.218;5.180;2024-02-21T01:25:50;10.80;;;3.45;;
84923;SDS011;75286;52.218;5.180;2024-02-21T01:28:17;10.30;;;3.45;;
84923;SDS011;75286;52.218;5.180;2024-02-21T01:30:43;13.80;;;3.50;;
84923;SDS011;75286;52.218;5.180;2024-02-21T01:33:12;20.30;;;4.70;;
84923;SDS011;75286;52.218;5.180;2024-02-21T01:35:37;17.15;;;3.80;;
84923;SDS011;75286;52.218;5.180;2024-02-21T01:38:03;14.82;;;3.90;;
84923;SDS011;75286;52.218;5.180;2024-02-21T01:40:32;16.52;;;3.78;;
84923;SDS011;75286;52.218;5.180;2024-02-21T01:43:15;13.38;;;4.05;;
84923;SDS011;75286;52.218;5.180;2024-02-21T01:45:51;14.07;;;4.90;;
84923;SDS011;75286;52.218;5.180;2024-02-21T01:51:11;20.00;;;3.85;;
84923;SDS011;75286;52.218;5.180;2024-02-21T01:53:48;11.40;;;3.10;;
84923;SDS011;75286;52.218;5.180;2024-02-21T01:56:25;14.60;;;3.83;;
84923;SDS011;75286;52.218;5.180;2024-02-21T01:59:11;13.15;;;2.97;;
84923;SDS011;75286;52.218;5.180;2024-02-21T02:01:48;18.23;;;3.20;;
84923;SDS011;75286;52.218;5.180;2024-02-21T02:04:28;15.98;;;3.55;;
84923;SDS011;75286;52.218;5.180;2024-02-21T02:07:02;16.42;;;3.35;;
84923;SDS011;75286;52.218;5.180;2024-02-21T02:09:48;17.92;;;3.88;;
84923;SDS011;75286;52.218;5.180;2024-02-21T02:12:24;14.20;;;3.50;;
84923;SDS011;75286;52.218;5.180;2024-02-21T02:15:02;13.18;;;4.03;;
84923;SDS011;75286;52.218;5.180;2024-02-21T02:17:40;16.88;;;3.50;;
84923;SDS011;75286;52.218;5.180;2024-02-21T02:20:23;14.40;;;3.25;;
84923;SDS011;75286;52.218;5.180;2024-02-21T02:25:40;13.05;;;3.33;;
84923;SDS011;75286;52.218;5.180;2024-02-21T02:28:08;14.00;;;3.15;;
84923;SDS011;75286;52.218;5.180;2024-02-21T02:30:34;13.52;;;3.08;;
84923;SDS011;75286;52.218;5.180;2024-02-21T02:33:05;13.18;;;3.83;;
84923;SDS011;75286;52.218;5.180;2024-02-21T02:35:40;11.90;;;3.45;;
84923;SDS011;75286;52.218;5.180;2024-02-21T02:38:17;15.50;;;3.65;;
84923;SDS011;75286;52.218;5.180;2024-02-21T02:41:00;17.15;;;4.00;;
84923;SDS011;75286;52.218;5.180;2024-02-21T02:43:40;11.00;;;3.28;;
84923;SDS011;75286;52.218;5.180;2024-02-21T02:46:19;11.63;;;3.38;;
84923;SDS011;75286;52.218;5.180;2024-02-21T02:48:53;7.93;;;2.28;;
84923;SDS011;75286;52.218;5.180;2024-02-21T02:54:40;13.27;;;2.85;;
84923;SDS011;75286;52.218;5.180;2024-02-21T02:57:05;15.10;;;3.78;;
84923;SDS011;75286;52.218;5.180;2024-02-21T02:59:32;15.32;;;3.30;;
84923;SDS011;75286;52.218;5.180;2024-02-21T03:04:51;12.80;;;3.50;;
84923;SDS011;75286;52.218;5.180;2024-02-21T03:07:31;12.63;;;3.17;;
84923;SDS011;75286;52.218;5.180;2024-02-21T03:10:11;15.55;;;3.90;;
84923;SDS011;75286;52.218;5.180;2024-02-21T03:12:50;7.57;;;3.00;;
84923;SDS011;75286;52.218;5.180;2024-02-21T03:15:29;14.77;;;3.45;;
84923;SDS011;75286;52.218;5.180;2024-02-21T03:18:07;13.02;;;3.85;;
84923;SDS011;75286;52.218;5.180;2024-02-21T03:20:45;15.40;;;4.28;;
84923;SDS011;75286;52.218;5.180;2024-02-21T03:23:23;15.60;;;4.25;;
84923;SDS011;75286;52.218;5.180;2024-02-21T03:26:03;16.77;;;3.88;;
84923;SDS011;75286;52.218;5.180;2024-02-21T03:28:49;19.17;;;4.00;;
84923;SDS011;75286;52.218;5.180;2024-02-21T03:31:29;16.77;;;3.70;;
84923;SDS011;75286;52.218;5.180;2024-02-21T03:34:04;23.65;;;4.75;;
84923;SDS011;75286;52.218;5.180;2024-02-21T03:36:41;12.13;;;3.95;;
84923;SDS011;75286;52.218;5.180;2024-02-21T03:39:16;14.90;;;4.45;;
84923;SDS011;75286;52.218;5.180;2024-02-21T03:41:58;14.35;;;4.35;;
84923;SDS011;75286;52.218;5.180;2024-02-21T03:44:38;10.85;;;4.15;;
84923;SDS011;75286;52.218;5.180;2024-02-21T03:47:12;13.18;;;4.30;;
84923;SDS011;75286;52.218;5.180;2024-02-21T03:49:56;13.73;;;4.07;;
84923;SDS011;75286;52.218;5.180;2024-02-21T03:55:08;13.05;;;4.13;;
84923;SDS011;75286;52.218;5.180;2024-02-21T03:57:57;11.50;;;3.75;;
84923;SDS011;75286;52.218;5.180;2024-02-21T04:00:34;18.95;;;4.07;;
84923;SDS011;75286;52.218;5.180;2024-02-21T04:03:05;17.27;;;4.40;;
84923;SDS011;75286;52.218;5.180;2024-02-21T04:05:47;12.95;;;4.68;;
84923;SDS011;75286;52.218;5.180;2024-02-21T04:08:34;12.77;;;4.13;;
84923;SDS011;75286;52.218;5.180;2024-02-21T04:11:03;14.80;;;4.50;;
84923;SDS011;75286;52.218;5.180;2024-02-21T04:16:31;12.30;;;4.70;;
84923;SDS011;75286;52.218;5.180;2024-02-21T04:19:09;19.58;;;4.80;;
84923;SDS011;75286;52.218;5.180;2024-02-21T04:21:46;13.25;;;5.88;;
84923;SDS011;75286;52.218;5.180;2024-02-21T04:24:27;13.52;;;6.03;;
84923;SDS011;75286;52.218;5.180;2024-02-21T04:27:10;11.75;;;5.50;;
84923;SDS011;75286;52.218;5.180;2024-02-21T04:29:42;11.70;;;6.22;;
84923;SDS011;75286;52.218;5.180;2024-02-21T04:32:09;16.15;;;6.97;;
84923;SDS011;75286;52.218;5.180;2024-02-21T04:34:57;15.48;;;6.35;;
84923;SDS011;75286;52.218;5.180;2024-02-21T04:37:39;16.77;;;5.78;;
84923;SDS011;75286;52.218;5.180;2024-02-21T04:40:22;11.70;;;5.05;;
84923;SDS011;75286;52.218;5.180;2024-02-21T04:42:50;12.98;;;5.72;;
84923;SDS011;75286;52.218;5.180;2024-02-21T04:45:42;15.63;;;6.65;;
84923;SDS011;75286;52.218;5.180;2024-02-21T04:48:17;15.00;;;6.35;;
84923;SDS011;75286;52.218;5.180;2024-02-21T04:50:57;16.10;;;6.10;;
84923;SDS011;75286;52.218;5.180;2024-02-21T04:53:34;14.25;;;5.18;;
84923;SDS011;75286;52.218;5.180;2024-02-21T04:58:50;15.85;;;5.90;;
84923;SDS011;75286;52.218;5.180;2024-02-21T05:01:33;11.90;;;5.10;;
84923;SDS011;75286;52.218;5.180;2024-02-21T05:06:53;12.60;;;5.72;;
84923;SDS011;75286;52.218;5.180;2024-02-21T05:09:27;13.02;;;6.30;;
84923;SDS011;75286;52.218;5.180;2024-02-21T05:12:11;10.00;;;5.43;;
84923;SDS011;75286;52.218;5.180;2024-02-21T05:14:45;12.15;;;5.70;;
84923;SDS011;75286;52.218;5.180;2024-02-21T05:17:27;14.55;;;6.35;;
84923;SDS011;75286;52.218;5.180;2024-02-21T05:20:04;11.20;;;5.05;;
84923;SDS011;75286;52.218;5.180;2024-02-21T05:22:47;13.65;;;5.47;;
84923;SDS011;75286;52.218;5.180;2024-02-21T05:28:05;13.07;;;5.47;;
84923;SDS011;75286;52.218;5.180;2024-02-21T05:30:43;17.02;;;6.50;;
84923;SDS011;75286;52.218;5.180;2024-02-21T05:33:24;14.88;;;6.88;;
84923;SDS011;75286;52.218;5.180;2024-02-21T05:36:05;15.45;;;6.88;;
84923;SDS011;75286;52.218;5.180;2024-02-21T05:38:46;10.32;;;6.55;;
84923;SDS011;75286;52.218;5.180;2024-02-21T05:41:20;13.98;;;7.50;;
84923;SDS011;75286;52.218;5.180;2024-02-21T05:44:00;11.90;;;7.30;;
84923;SDS011;75286;52.218;5.180;2024-02-21T05:46:28;14.05;;;7.65;;
84923;SDS011;75286;52.218;5.180;2024-02-21T05:48:54;15.50;;;7.25;;
84923;SDS011;75286;52.218;5.180;2024-02-21T05:51:32;14.23;;;7.22;;
84923;SDS011;75286;52.218;5.180;2024-02-21T05:54:00;14.32;;;8.07;;
84923;SDS011;75286;52.218;5.180;2024-02-21T05:56:26;14.48;;;8.65;;
84923;SDS011;75286;52.218;5.180;2024-02-21T05:58:52;13.80;;;6.93;;
84923;SDS011;75286;52.218;5.180;2024-02-21T06:01:17;19.95;;;8.27;;
84923;SDS011;75286;52.218;5.180;2024-02-21T06:03:43;14.43;;;8.52;;
84923;SDS011;75286;52.218;5.180;2024-02-21T06:06:13;14.48;;;7.80;;
84923;SDS011;75286;52.218;5.180;2024-02-21T06:08:39;15.57;;;8.25;;
84923;SDS011;75286;52.218;5.180;2024-02-21T06:11:08;14.60;;;8.32;;
84923;SDS011;75286;52.218;5.180;2024-02-21T06:13:39;13.07;;;8.30;;
84923;SDS011;75286;52.218;5.180;2024-02-21T06:16:06;14.02;;;7.93;;
84923;SDS011;75286;52.218;5.180;2024-02-21T06:18:35;15.35;;;8.25;;
84923;SDS011;75286;52.218;5.180;2024-02-21T06:21:06;16.42;;;9.20;;
84923;SDS011;75286;52.218;5.180;2024-02-21T06:23:32;13.63;;;8.90;;
84923;SDS011;75286;52.218;5.180;2024-02-21T06:26:14;15.15;;;8.40;;
84923;SDS011;75286;52.218;5.180;2024-02-21T06:28:39;15.95;;;8.02;;
84923;SDS011;75286;52.218;5.180;2024-02-21T06:31:20;14.98;;;7.60;;
84923;SDS011;75286;52.218;5.180;2024-02-21T06:33:45;13.73;;;8.27;;
84923;SDS011;75286;52.218;5.180;2024-02-21T06:36:11;15.32;;;8.18;;
84923;SDS011;75286;52.218;5.180;2024-02-21T06:38:46;16.88;;;7.70;;
84923;SDS011;75286;52.218;5.180;2024-02-21T06:41:25;15.95;;;8.70;;
84923;SDS011;75286;52.218;5.180;2024-02-21T06:44:07;16.27;;;9.20;;
84923;SDS011;75286;52.218;5.180;2024-02-21T06:46:51;16.08;;;8.73;;
84923;SDS011;75286;52.218;5.180;2024-02-21T06:49:25;14.77;;;8.98;;
84923;SDS011;75286;52.218;5.180;2024-02-21T06:52:04;17.67;;;8.38;;
84923;SDS011;75286;52.218;5.180;2024-02-21T06:54:48;18.25;;;9.65;;
84923;SDS011;75286;52.218;5.180;2024-02-21T06:57:20;16.77;;;9.80;;
84923;SDS011;75286;52.218;5.180;2024-02-21T06:59:59;21.20;;;9.68;;
84923;SDS011;75286;52.218;5.180;2024-02-21T07:02:40;19.02;;;9.32;;
84923;SDS011;75286;52.218;5.180;2024-02-21T07:05:14;17.75;;;9.50;;
84923;SDS011;75286;52.218;5.180;2024-02-21T07:08:00;19.17;;;9.90;;
84923;SDS011;75286;52.218;5.180;2024-02-21T07:10:38;18.65;;;10.63;;
84923;SDS011;75286;52.218;5.180;2024-02-21T07:13:12;20.70;;;9.27;;
84923;SDS011;75286;52.218;5.180;2024-02-21T07:15:52;19.88;;;10.50;;
84923;SDS011;75286;52.218;5.180;2024-02-21T07:18:27;16.27;;;9.35;;
84923;SDS011;75286;52.218;5.180;2024-02-21T07:23:50;17.95;;;10.05;;
84923;SDS011;75286;52.218;5.180;2024-02-21T07:26:31;18.40;;;9.63;;
84923;SDS011;75286;52.218;5.180;2024-02-21T07:29:00;16.45;;;9.65;;
84923;SDS011;75286;52.218;5.180;2024-02-21T07:31:28;20.65;;;9.32;;
84923;SDS011;75286;52.218;5.180;2024-02-21T07:34:05;17.70;;;9.55;;
84923;SDS011;75286;52.218;5.180;2024-02-21T07:36:31;23.67;;;10.07;;
84923;SDS011;75286;52.218;5.180;2024-02-21T07:39:09;17.00;;;8.98;;
84923;SDS011;75286;52.218;5.180;2024-02-21T07:41:34;21.67;;;10.05;;
84923;SDS011;75286;52.218;5.180;2024-02-21T07:44:00;19.92;;;9.80;;
84923;SDS011;75286;52.218;5.180;2024-02-21T07:46:28;19.92;;;8.93;;
84923;SDS011;75286;52.218;5.180;2024-02-21T07:49:18;18.05;;;10.10;;
84923;SDS011;75286;52.218;5.180;2024-02-21T07:51:48;17.98;;;10.15;;
84923;SDS011;75286;52.218;5.180;2024-02-21T07:54:14;21.38;;;11.57;;
84923;SDS011;75286;52.218;5.180;2024-02-21T07:56:39;20.55;;;10.75;;
84923;SDS011;75286;52.218;5.180;2024-02-21T07:59:17;20.23;;;11.60;;
84923;SDS011;75286;52.218;5.180;2024-02-21T08:04:33;17.85;;;9.93;;
84923;SDS011;75286;52.218;5.180;2024-02-21T08:06:58;18.50;;;10.10;;
84923;SDS011;75286;52.218;5.180;2024-02-21T08:12:25;18.60;;;11.00;;
84923;SDS011;75286;52.218;5.180;2024-02-21T08:15:06;19.50;;;10.35;;
84923;SDS011;75286;52.218;5.180;2024-02-21T08:20:35;16.48;;;9.30;;
84923;SDS011;75286;52.218;5.180;2024-02-21T08:26:32;18.48;;;9.13;;
84923;SDS011;75286;52.218;5.180;2024-02-21T08:29:00;21.70;;;8.95;;
84923;SDS011;75286;52.218;5.180;2024-02-21T08:34:00;20.63;;;11.10;;
84923;SDS011;75286;52.218;5.180;2024-02-21T08:36:35;18.27;;;10.60;;
84923;SDS011;75286;52.218;5.180;2024-02-21T08:39:02;23.98;;;12.07;;
84923;SDS011;75286;52.218;5.180;2024-02-21T08:41:30;20.60;;;11.32;;
84923;SDS011;75286;52.218;5.180;2024-02-21T08:43:56;22.67;;;12.55;;
84923;SDS011;75286;52.218;5.180;2024-02-21T08:46:22;19.88;;;10.93;;
84923;SDS011;75286;52.218;5.180;2024-02-21T08:48:49;19.02;;;11.80;;
84923;SDS011;75286;52.218;5.180;2024-02-21T08:51:16;15.82;;;10.30;;
84923;SDS011;75286;52.218;5.180;2024-02-21T08:53:42;21.33;;;10.85;;
84923;SDS011;75286;52.218;5.180;2024-02-21T08:56:07;18.27;;;10.50;;
84923;SDS011;75286;52.218;5.180;2024-02-21T08:58:33;20.80;;;11.18;;
84923;SDS011;75286;52.218;5.180;2024-02-21T09:00:58;19.83;;;10.95;;
84923;SDS011;75286;52.218;5.180;2024-02-21T09:03:24;24.05;;;13.65;;
84923;SDS011;75286;52.218;5.180;2024-02-21T09:05:50;25.02;;;13.27;;
84923;SDS011;75286;52.218;5.180;2024-02-21T09:08:15;22.27;;;11.73;;
84923;SDS011;75286;52.218;5.180;2024-02-21T09:10:40;21.00;;;11.48;;
84923;SDS011;75286;52.218;5.180;2024-02-21T09:13:06;19.13;;;11.18;;
84923;SDS011;75286;52.218;5.180;2024-02-21T09:15:33;22.45;;;11.32;;
84923;SDS011;75286;52.218;5.180;2024-02-21T09:17:58;21.48;;;11.85;;
84923;SDS011;75286;52.218;5.180;2024-02-21T09:20:24;23.83;;;12.00;;
84923;SDS011;75286;52.218;5.180;2024-02-21T09:22:49;19.20;;;11.48;;
84923;SDS011;75286;52.218;5.180;2024-02-21T09:25:15;18.75;;;11.30;;
84923;SDS011;75286;52.218;5.180;2024-02-21T09:27:40;21.10;;;11.52;;
84923;SDS011;75286;52.218;5.180;2024-02-21T09:30:06;19.85;;;10.75;;
84923;SDS011;75286;52.218;5.180;2024-02-21T09:32:32;17.58;;;11.30;;
84923;SDS011;75286;52.218;5.180;2024-02-21T09:35:01;18.92;;;9.93;;
84923;SDS011;75286;52.218;5.180;2024-02-21T09:37:26;20.85;;;11.30;;
84923;SDS011;75286;52.218;5.180;2024-02-21T09:39:51;16.23;;;9.63;;
84923;SDS011;75286;52.218;5.180;2024-02-21T09:42:21;19.42;;;11.25;;
84923;SDS011;75286;52.218;5.180;2024-02-21T09:44:47;22.98;;;10.43;;
84923;SDS011;75286;52.218;5.180;2024-02-21T09:47:17;17.70;;;10.63;;
84923;SDS011;75286;52.218;5.180;2024-02-21T09:49:47;17.13;;;9.05;;
84923;SDS011;75286;52.218;5.180;2024-02-21T09:52:13;20.33;;;10.30;;
84923;SDS011;75286;52.218;5.180;2024-02-21T09:54:40;22.83;;;9.00;;
84923;SDS011;75286;52.218;5.180;2024-02-21T09:57:09;16.20;;;8.98;;
84923;SDS011;75286;52.218;5.180;2024-02-21T09:59:38;17.65;;;9.00;;
84923;SDS011;75286;52.218;5.180;2024-02-21T10:02:09;20.70;;;9.98;;
84923;SDS011;75286;52.218;5.180;2024-02-21T10:04:54;15.25;;;9.65;;
84923;SDS011;75286;52.218;5.180;2024-02-21T10:07:20;16.55;;;9.27;;
84923;SDS011;75286;52.218;5.180;2024-02-21T10:09:48;17.55;;;8.52;;
84923;SDS011;75286;52.218;5.180;2024-02-21T10:12:13;17.80;;;8.88;;
84923;SDS011;75286;52.218;5.180;2024-02-21T10:14:41;17.65;;;10.57;;
84923;SDS011;75286;52.218;5.180;2024-02-21T10:17:24;13.02;;;7.20;;
84923;SDS011;75286;52.218;5.180;2024-02-21T10:19:49;14.70;;;7.55;;
84923;SDS011;75286;52.218;5.180;2024-02-21T10:22:17;12.45;;;7.60;;
84923;SDS011;75286;52.218;5.180;2024-02-21T10:25:06;12.88;;;7.00;;
84923;SDS011;75286;52.218;5.180;2024-02-21T10:27:32;13.00;;;7.57;;
84923;SDS011;75286;52.218;5.180;2024-02-21T10:29:57;11.68;;;6.60;;
84923;SDS011;75286;52.218;5.180;2024-02-21T10:32:23;15.90;;;7.55;;
84923;SDS011;75286;52.218;5.180;2024-02-21T10:34:50;15.15;;;6.60;;
84923;SDS011;75286;52.218;5.180;2024-02-21T10:37:17;13.55;;;7.63;;
84923;SDS011;75286;52.218;5.180;2024-02-21T10:39:42;12.10;;;7.10;;
84923;SDS011;75286;52.218;5.180;2024-02-21T10:42:12;12.77;;;6.50;;
84923;SDS011;75286;52.218;5.180;2024-02-21T10:44:42;13.18;;;6.88;;
84923;SDS011;75286;52.218;5.180;2024-02-21T10:47:10;13.20;;;6.70;;
84923;SDS011;75286;52.218;5.180;2024-02-21T10:49:40;13.55;;;6.68;;
84923;SDS011;75286;52.218;5.180;2024-02-21T10:52:13;11.02;;;5.78;;
84923;SDS011;75286;52.218;5.180;2024-02-21T10:54:55;9.50;;;6.00;;
84923;SDS011;75286;52.218;5.180;2024-02-21T10:57:25;11.73;;;6.57;;
84923;SDS011;75286;52.218;5.180;2024-02-21T10:59:52;10.00;;;6.45;;
84923;SDS011;75286;52.218;5.180;2024-02-21T11:02:19;9.60;;;5.40;;
84923;SDS011;75286;52.218;5.180;2024-02-21T11:04:45;8.60;;;4.65;;
84923;SDS011;75286;52.218;5.180;2024-02-21T11:07:11;11.80;;;6.07;;
84923;SDS011;75286;52.218;5.180;2024-02-21T11:09:37;10.60;;;6.07;;
84923;SDS011;75286;52.218;5.180;2024-02-21T11:12:06;10.15;;;5.63;;
84923;SDS011;75286;52.218;5.180;2024-02-21T11:14:32;9.43;;;5.07;;
84923;SDS011;75286;52.218;5.180;2024-02-21T11:17:02;10.93;;;5.43;;
84923;SDS011;75286;52.218;5.180;2024-02-21T11:19:29;10.18;;;5.68;;
84923;SDS011;75286;52.218;5.180;2024-02-21T11:21:56;10.43;;;5.07;;
84923;SDS011;75286;52.218;5.180;2024-02-21T11:24:32;9.45;;;4.53;;
84923;SDS011;75286;52.218;5.180;2024-02-21T11:29:56;9.18;;;5.55;;
84923;SDS011;75286;52.218;5.180;2024-02-21T11:32:22;14.20;;;6.32;;
84923;SDS011;75286;52.218;5.180;2024-02-21T11:34:57;11.90;;;6.07;;
84923;SDS011;75286;52.218;5.180;2024-02-21T11:37:26;11.45;;;6.15;;
84923;SDS011;75286;52.218;5.180;2024-02-21T11:39:53;14.73;;;6.20;;
84923;SDS011;75286;52.218;5.180;2024-02-21T11:42:19;11.52;;;5.85;;
84923;SDS011;75286;52.218;5.180;2024-02-21T11:44:45;11.05;;;6.75;;
84923;SDS011;75286;52.218;5.180;2024-02-21T11:47:10;10.85;;;7.47;;
84923;SDS011;75286;52.218;5.180;2024-02-21T11:49:37;10.93;;;6.80;;
84923;SDS011;75286;52.218;5.180;2024-02-21T11:52:04;12.23;;;7.28;;
84923;SDS011;75286;52.218;5.180;2024-02-21T11:54:30;12.88;;;7.00;;
84923;SDS011;75286;52.218;5.180;2024-02-21T11:56:56;11.32;;;6.95;;
84923;SDS011;75286;52.218;5.180;2024-02-21T11:59:21;11.73;;;7.38;;
84923;SDS011;75286;52.218;5.180;2024-02-21T12:01:48;10.35;;;5.95;;
84923;SDS011;75286;52.218;5.180;2024-02-21T12:04:13;11.05;;;6.20;;
84923;SDS011;75286;52.218;5.180;2024-02-21T12:06:42;10.57;;;6.60;;
84923;SDS011;75286;52.218;5.180;2024-02-21T12:09:09;9.98;;;6.45;;
84923;SDS011;75286;52.218;5.180;2024-02-21T12:11:34;12.15;;;6.70;;
84923;SDS011;75286;52.218;5.180;2024-02-21T12:16:29;9.35;;;5.35;;
84923;SDS011;75286;52.218;5.180;2024-02-21T12:18:58;11.60;;;6.68;;
84923;SDS011;75286;52.218;5.180;2024-02-21T12:21:25;11.20;;;7.22;;
84923;SDS011;75286;52.218;5.180;2024-02-21T12:24:00;11.15;;;8.13;;
84923;SDS011;75286;52.218;5.180;2024-02-21T12:26:41;10.88;;;6.85;;
84923;SDS011;75286;52.218;5.180;2024-02-21T12:29:07;11.45;;;7.90;;
84923;SDS011;75286;52.218;5.180;2024-02-21T12:31:37;11.77;;;7.28;;
84923;SDS011;75286;52.218;5.180;2024-02-21T12:34:03;11.43;;;6.78;;
84923;SDS011;75286;52.218;5.180;2024-02-21T12:36:29;10.98;;;6.43;;
84923;SDS011;75286;52.218;5.180;2024-02-21T12:38:55;12.65;;;7.18;;
84923;SDS011;75286;52.218;5.180;2024-02-21T12:41:21;12.93;;;6.78;;
84923;SDS011;75286;52.218;5.180;2024-02-21T12:43:46;10.35;;;6.38;;
84923;SDS011;75286;52.218;5.180;2024-02-21T12:46:12;9.98;;;6.68;;
84923;SDS011;75286;52.218;5.180;2024-02-21T12:48:37;9.73;;;6.10;;
84923;SDS011;75286;52.218;5.180;2024-02-21T12:51:03;11.15;;;6.50;;
84923;SDS011;75286;52.218;5.180;2024-02-21T12:53:29;10.60;;;6.78;;
84923;SDS011;75286;52.218;5.180;2024-02-21T12:55:55;10.60;;;7.05;;
84923;SDS011;75286;52.218;5.180;2024-02-21T12:58:21;11.00;;;6.50;;
84923;SDS011;75286;52.218;5.180;2024-02-21T13:00:47;12.30;;;6.68;;
84923;SDS011;75286;52.218;5.180;2024-02-21T13:03:12;14.35;;;6.35;;
84923;SDS011;75286;52.218;5.180;2024-02-21T13:05:37;11.52;;;7.15;;
84923;SDS011;75286;52.218;5.180;2024-02-21T13:08:04;11.25;;;6.15;;
84923;SDS011;75286;52.218;5.180;2024-02-21T13:10:32;10.45;;;6.03;;
84923;SDS011;75286;52.218;5.180;2024-02-21T13:13:01;9.98;;;5.95;;
84923;SDS011;75286;52.218;5.180;2024-02-21T13:15:27;9.68;;;5.80;;
84923;SDS011;75286;52.218;5.180;2024-02-21T13:17:53;9.93;;;5.95;;
84923;SDS011;75286;52.218;5.180;2024-02-21T13:20:19;9.25;;;5.47;;
84923;SDS011;75286;52.218;5.180;2024-02-21T13:22:45;10.32;;;5.70;;
84923;SDS011;75286;52.218;5.180;2024-02-21T13:25:11;8.73;;;5.10;;
84923;SDS011;75286;52.218;5.180;2024-02-21T13:27:40;9.18;;;5.88;;
84923;SDS011;75286;52.218;5.180;2024-02-21T13:30:05;9.73;;;5.68;;
84923;SDS011;75286;52.218;5.180;2024-02-21T13:32:33;11.10;;;5.10;;
84923;SDS011;75286;52.218;5.180;2024-02-21T13:34:59;13.32;;;4.93;;
84923;SDS011;75286;52.218;5.180;2024-02-21T13:37:26;12.02;;;5.75;;
84923;SDS011;75286;52.218;5.180;2024-02-21T13:39:52;9.95;;;5.60;;
84923;SDS011;75286;52.218;5.180;2024-02-21T13:42:17;7.88;;;4.75;;
84923;SDS011;75286;52.218;5.180;2024-02-21T13:44:44;8.70;;;4.70;;
84923;SDS011;75286;52.218;5.180;2024-02-21T13:47:09;9.25;;;4.95;;
84923;SDS011;75286;52.218;5.180;2024-02-21T13:49:36;8.40;;;4.32;;
84923;SDS011;75286;52.218;5.180;2024-02-21T13:52:01;7.75;;;4.53;;
84923;SDS011;75286;52.218;5.180;2024-02-21T13:54:27;7.93;;;4.70;;
84923;SDS011;75286;52.218;5.180;2024-02-21T13:56:52;10.30;;;4.43;;
84923;SDS011;75286;52.218;5.180;2024-02-21T13:59:18;10.57;;;5.57;;
84923;SDS011;75286;52.218;5.180;2024-02-21T14:01:43;9.88;;;4.45;;
84923;SDS011;75286;52.218;5.180;2024-02-21T14:04:08;11.70;;;5.10;;
84923;SDS011;75286;52.218;5.180;2024-02-21T14:06:34;12.30;;;6.38;;
84923;SDS011;75286;52.218;5.180;2024-02-21T14:08:59;8.00;;;5.10;;
84923;SDS011;75286;52.218;5.180;2024-02-21T14:11:25;11.32;;;5.65;;
84923;SDS011;75286;52.218;5.180;2024-02-21T14:13:51;12.35;;;5.50;;
84923;SDS011;75286;52.218;5.180;2024-02-21T14:16:17;10.75;;;5.10;;
84923;SDS011;75286;52.218;5.180;2024-02-21T14:18:43;9.25;;;4.47;;
84923;SDS011;75286;52.218;5.180;2024-02-21T14:21:08;10.30;;;5.50;;
84923;SDS011;75286;52.218;5.180;2024-02-21T14:23:37;10.43;;;5.45;;
84923;SDS011;75286;52.218;5.180;2024-02-21T14:26:03;9.52;;;4.35;;
84923;SDS011;75286;52.218;5.180;2024-02-21T14:28:29;10.80;;;5.03;;
84923;SDS011;75286;52.218;5.180;2024-02-21T14:30:54;10.10;;;5.00;;
84923;SDS011;75286;52.218;5.180;2024-02-21T14:33:22;10.50;;;4.50;;
84923;SDS011;75286;52.218;5.180;2024-02-21T14:35:49;6.78;;;3.55;;
84923;SDS011;75286;52.218;5.180;2024-02-21T14:38:14;9.00;;;5.00;;
84923;SDS011;75286;52.218;5.180;2024-02-21T14:40:39;11.18;;;4.65;;
84923;SDS011;75286;52.218;5.180;2024-02-21T14:43:05;10.43;;;5.20;;
84923;SDS011;75286;52.218;5.180;2024-02-21T14:45:30;9.50;;;4.05;;
84923;SDS011;75286;52.218;5.180;2024-02-21T14:47:56;9.43;;;5.05;;
84923;SDS011;75286;52.218;5.180;2024-02-21T14:50:21;8.90;;;4.75;;
84923;SDS011;75286;52.218;5.180;2024-02-21T14:52:48;10.40;;;5.28;;
84923;SDS011;75286;52.218;5.180;2024-02-21T14:55:14;11.90;;;4.90;;
84923;SDS011;75286;52.218;5.180;2024-02-21T14:57:39;8.88;;;4.13;;
84923;SDS011;75286;52.218;5.180;2024-02-21T15:00:06;9.50;;;4.57;;
84923;SDS011;75286;52.218;5.180;2024-02-21T15:02:33;8.35;;;4.13;;
84923;SDS011;75286;52.218;5.180;2024-02-21T15:05:00;11.07;;;4.45;;
84923;SDS011;75286;52.218;5.180;2024-02-21T15:07:25;8.73;;;4.40;;
84923;SDS011;75286;52.218;5.180;2024-02-21T15:09:51;7.82;;;3.95;;
84923;SDS011;75286;52.218;5.180;2024-02-21T15:12:17;11.80;;;3.97;;
84923;SDS011;75286;52.218;5.180;2024-02-21T15:14:42;8.27;;;4.30;;
84923;SDS011;75286;52.218;5.180;2024-02-21T15:17:09;8.82;;;4.00;;
84923;SDS011;75286;52.218;5.180;2024-02-21T15:19:35;10.70;;;4.53;;
84923;SDS011;75286;52.218;5.180;2024-02-21T15:22:02;10.15;;;4.40;;
84923;SDS011;75286;52.218;5.180;2024-02-21T15:24:28;9.88;;;4.32;;
84923;SDS011;75286;52.218;5.180;2024-02-21T15:26:53;9.50;;;4.47;;
84923;SDS011;75286;52.218;5.180;2024-02-21T15:29:18;10.38;;;4.82;;
84923;SDS011;75286;52.218;5.180;2024-02-21T15:31:45;14.35;;;5.25;;
84923;SDS011;75286;52.218;5.180;2024-02-21T15:34:12;12.38;;;5.15;;
84923;SDS011;75286;52.218;5.180;2024-02-21T15:36:40;9.82;;;5.55;;
84923;SDS011;75286;52.218;5.180;2024-02-21T15:39:07;9.35;;;4.60;;
84923;SDS011;75286;52.218;5.180;2024-02-21T15:41:33;9.43;;;5.32;;
84923;SDS011;75286;52.218;5.180;2024-02-21T15:43:59;12.02;;;5.85;;
84923;SDS011;75286;52.218;5.180;2024-02-21T15:46:24;11.25;;;4.82;;
84923;SDS011;75286;52.218;5.180;2024-02-21T15:48:50;9.95;;;5.20;;
84923;SDS011;75286;52.218;5.180;2024-02-21T15:51:19;10.70;;;4.68;;
84923;SDS011;75286;52.218;5.180;2024-02-21T15:53:47;10.48;;;4.95;;